sensor_id;sensor_type;location;lat;lon;timestamp;pressure;altitude;pressure_sealevel;temperature;humidity
18918;BME280;9591;52.742;13.650;2022-10-29T00:00:30;101472.88;;;15.34;100.00
18918;BME280;9591;52.742;13.650;2022-10-29T00:03:18;101468.78;;;15.47;100.00
18918;BME280;9591;52.742;13.650;2022-10-29T00:06:06;101483.66;;;15.53;100.00
18918;BME280;9591;52.742;13.650;2022-10-29T00:08:55;101492.53;;;15.53;100.00
18918;BME280;9591;52.742;13.650;2022-10-29T00:11:41;101492.13;;;15.42;100.00
18918;BME280;9591;52.742;13.650;2022-10-29T00:14:30;101490.69;;;15.33;100.00
18918;BME280;9591;52.742;13.650;2022-10-29T00:17:16;101497.31;;;15.23;100.00
18918;BME280;9591;52.742;13.650;2022-10-29T00:20:04;101495.63;;;15.21;100.00
18918;BME280;9591;52.742;13.650;2022-10-29T00:22:56;101502.03;;;15.17;100.00
18918;BME280;9591;52.742;13.650;2022-10-29T00:25:42;101497.59;;;15.16;100.00
18918;BME280;9591;52.742;13.650;2022-10-29T00:28:29;101495.88;;;15.15;100.00
18918;BME280;9591;52.742;13.650;2022-10-29T00:31:18;101499.41;;;15.15;100.00
18918;BME280;9591;52.742;13.650;2022-10-29T00:34:05;101499.66;;;15.09;100.00
18918;BME280;9591;52.742;13.650;2022-10-29T00:36:52;101499.81;;;15.04;100.00
18918;BME280;9591;52.742;13.650;2022-10-29T00:39:39;101508.00;;;15.00;100.00
18918;BME280;9591;52.742;13.650;2022-10-29T00:42:26;101512.69;;;14.93;100.00
18918;BME280;9591;52.742;13.650;2022-10-29T00:45:18;101522.44;;;14.94;100.00
18918;BME280;9591;52.742;13.650;2022-10-29T00:48:06;101533.16;;;14.93;100.00
18918;BME280;9591;52.742;13.650;2022-10-29T00:50:55;101529.56;;;14.94;100.00
18918;BME280;9591;52.742;13.650;2022-10-29T00:53:45;101532.13;;;14.97;100.00
18918;BME280;9591;52.742;13.650;2022-10-29T00:56:37;101535.59;;;14.99;100.00
18918;BME280;9591;52.742;13.650;2022-10-29T00:59:24;101534.72;;;14.98;100.00
18918;BME280;9591;52.742;13.650;2022-10-29T01:02:11;101540.00;;;15.00;100.00
18918;BME280;9591;52.742;13.650;2022-10-29T01:05:00;101518.78;;;14.97;100.00
18918;BME280;9591;52.742;13.650;2022-10-29T01:07:48;101523.31;;;14.95;100.00
18918;BME280;9591;52.742;13.650;2022-10-29T01:10:46;101525.81;;;14.99;100.00
18918;BME280;9591;52.742;13.650;2022-10-29T01:13:49;101519.47;;;15.02;100.00
18918;BME280;9591;52.742;13.650;2022-10-29T01:16:46;101526.72;;;14.98;100.00
18918;BME280;9591;52.742;13.650;2022-10-29T01:19:54;101535.84;;;14.93;100.00
18918;BME280;9591;52.742;13.650;2022-10-29T01:22:55;101542.25;;;14.87;100.00
18918;BME280;9591;52.742;13.650;2022-10-29T01:26:02;101533.56;;;14.82;100.00
18918;BME280;9591;52.742;13.650;2022-10-29T01:29:03;101525.63;;;14.81;100.00
18918;BME280;9591;52.742;13.650;2022-10-29T01:32:00;101517.84;;;14.74;100.00
18918;BME280;9591;52.742;13.650;2022-10-29T01:34:55;101514.91;;;14.59;100.00
18918;BME280;9591;52.742;13.650;2022-10-29T01:37:51;101515.19;;;14.51;100.00
18918;BME280;9591;52.742;13.650;2022-10-29T01:40:45;101530.63;;;14.41;100.00
18918;BME280;9591;52.742;13.650;2022-10-29T01:43:37;101540.38;;;14.41;100.00
18918;BME280;9591;52.742;13.650;2022-10-29T01:46:30;101541.53;;;14.34;100.00
18918;BME280;9591;52.742;13.650;2022-10-29T01:49:26;101539.94;;;14.28;100.00
18918;BME280;9591;52.742;13.650;2022-10-29T01:52:16;101533.28;;;14.15;100.00
18918;BME280;9591;52.742;13.650;2022-10-29T01:55:04;101546.72;;;14.12;100.00
18918;BME280;9591;52.742;13.650;2022-10-29T01:57:51;101548.66;;;14.07;100.00
18918;BME280;9591;52.742;13.650;2022-10-29T02:00:47;101553.16;;;14.05;100.00
18918;BME280;9591;52.742;13.650;2022-10-29T02:03:42;101553.44;;;13.97;100.00
18918;BME280;9591;52.742;13.650;2022-10-29T02:06:45;101561.38;;;13.99;100.00
18918;BME280;9591;52.742;13.650;2022-10-29T02:09:43;101559.06;;;13.88;100.00
18918;BME280;9591;52.742;13.650;2022-10-29T02:12:35;101562.97;;;13.78;100.00
18918;BME280;9591;52.742;13.650;2022-10-29T02:15:28;101563.38;;;13.66;100.00
18918;BME280;9591;52.742;13.650;2022-10-29T02:18:16;101557.56;;;13.53;100.00
18918;BME280;9591;52.742;13.650;2022-10-29T02:21:03;101562.97;;;13.50;100.00
18918;BME280;9591;52.742;13.650;2022-10-29T02:23:51;101560.44;;;13.45;100.00
18918;BME280;9591;52.742;13.650;2022-10-29T02:26:38;101563.13;;;13.45;100.00
18918;BME280;9591;52.742;13.650;2022-10-29T02:29:25;101563.13;;;13.45;100.00
18918;BME280;9591;52.742;13.650;2022-10-29T02:32:11;101562.25;;;13.45;100.00
18918;BME280;9591;52.742;13.650;2022-10-29T02:34:59;101562.97;;;13.50;100.00
18918;BME280;9591;52.742;13.650;2022-10-29T02:37:45;101566.47;;;13.52;100.00
18918;BME280;9591;52.742;13.650;2022-10-29T02:40:34;101570.81;;;13.55;100.00
18918;BME280;9591;52.742;13.650;2022-10-29T02:43:21;101565.28;;;13.61;100.00
18918;BME280;9591;52.742;13.650;2022-10-29T02:46:15;101571.44;;;13.63;100.00
18918;BME280;9591;52.742;13.650;2022-10-29T02:49:02;101574.00;;;13.66;100.00
18918;BME280;9591;52.742;13.650;2022-10-29T02:51:49;101573.97;;;13.67;100.00
18918;BME280;9591;52.742;13.650;2022-10-29T02:54:36;101578.22;;;13.73;100.00
18918;BME280;9591;52.742;13.650;2022-10-29T02:57:25;101580.53;;;13.84;100.00
18918;BME280;9591;52.742;13.650;2022-10-29T03:00:13;101581.66;;;14.03;100.00
18918;BME280;9591;52.742;13.650;2022-10-29T03:03:00;101580.38;;;14.15;100.00
18918;BME280;9591;52.742;13.650;2022-10-29T03:05:47;101587.44;;;14.16;100.00
18918;BME280;9591;52.742;13.650;2022-10-29T03:08:34;101591.59;;;14.24;100.00
18918;BME280;9591;52.742;13.650;2022-10-29T03:11:21;101582.78;;;14.22;100.00
18918;BME280;9591;52.742;13.650;2022-10-29T03:14:09;101588.25;;;14.18;100.00
18918;BME280;9591;52.742;13.650;2022-10-29T03:16:56;101585.75;;;14.13;100.00
18918;BME280;9591;52.742;13.650;2022-10-29T03:19:43;101579.50;;;14.14;100.00
18918;BME280;9591;52.742;13.650;2022-10-29T03:22:29;101585.66;;;14.16;100.00
18918;BME280;9591;52.742;13.650;2022-10-29T03:25:16;101583.91;;;14.15;100.00
18918;BME280;9591;52.742;13.650;2022-10-29T03:28:03;101587.53;;;14.13;100.00
18918;BME280;9591;52.742;13.650;2022-10-29T03:30:51;101583.09;;;14.13;100.00
18918;BME280;9591;52.742;13.650;2022-10-29T03:33:38;101582.28;;;14.11;100.00
18918;BME280;9591;52.742;13.650;2022-10-29T03:36:25;101584.16;;;14.07;100.00
18918;BME280;9591;52.742;13.650;2022-10-29T03:39:12;101586.94;;;14.04;100.00
18918;BME280;9591;52.742;13.650;2022-10-29T03:41:59;101585.19;;;14.03;100.00
18918;BME280;9591;52.742;13.650;2022-10-29T03:44:48;101585.19;;;14.03;100.00
18918;BME280;9591;52.742;13.650;2022-10-29T03:47:37;101588.09;;;13.96;100.00
18918;BME280;9591;52.742;13.650;2022-10-29T03:50:23;101593.31;;;13.99;100.00
18918;BME280;9591;52.742;13.650;2022-10-29T03:53:10;101600.19;;;14.06;100.00
18918;BME280;9591;52.742;13.650;2022-10-29T03:55:57;101605.31;;;14.12;100.00
18918;BME280;9591;52.742;13.650;2022-10-29T03:58:44;101598.34;;;14.08;100.00
18918;BME280;9591;52.742;13.650;2022-10-29T04:01:31;101601.88;;;14.08;100.00
18918;BME280;9591;52.742;13.650;2022-10-29T04:04:20;101599.53;;;13.99;100.00
18918;BME280;9591;52.742;13.650;2022-10-29T04:07:06;101604.13;;;13.94;100.00
18918;BME280;9591;52.742;13.650;2022-10-29T04:09:53;101605.91;;;13.94;100.00
18918;BME280;9591;52.742;13.650;2022-10-29T04:12:44;101604.91;;;13.98;100.00
18918;BME280;9591;52.742;13.650;2022-10-29T04:15:30;101604.81;;;14.01;100.00
18918;BME280;9591;52.742;13.650;2022-10-29T04:18:17;101595.16;;;13.97;100.00
18918;BME280;9591;52.742;13.650;2022-10-29T04:21:05;101602.38;;;13.93;100.00
18918;BME280;9591;52.742;13.650;2022-10-29T04:24:12;101616.66;;;13.91;100.00
18918;BME280;9591;52.742;13.650;2022-10-29T04:27:19;101620.25;;;13.90;100.00
18918;BME280;9591;52.742;13.650;2022-10-29T04:30:25;101614.06;;;13.89;100.00
18918;BME280;9591;52.742;13.650;2022-10-29T04:33:12;101611.56;;;13.85;100.00
18918;BME280;9591;52.742;13.650;2022-10-29T04:35:58;101604.59;;;13.81;100.00
18918;BME280;9591;52.742;13.650;2022-10-29T04:38:47;101598.25;;;14.11;100.00
18918;BME280;9591;52.742;13.650;2022-10-29T04:41:35;101602.75;;;14.09;100.00
18918;BME280;9591;52.742;13.650;2022-10-29T04:44:22;101607.22;;;14.08;100.00
18918;BME280;9591;52.742;13.650;2022-10-29T04:47:08;101611.41;;;14.16;100.00
18918;BME280;9591;52.742;13.650;2022-10-29T04:49:55;101606.25;;;14.11;100.00
18918;BME280;9591;52.742;13.650;2022-10-29T04:52:42;101620.38;;;14.13;100.00
18918;BME280;9591;52.742;13.650;2022-10-29T04:55:30;101613.41;;;14.09;100.00
18918;BME280;9591;52.742;13.650;2022-10-29T04:58:18;101621.06;;;13.92;100.00
18918;BME280;9591;52.742;13.650;2022-10-29T05:01:05;101616.16;;;13.80;100.00
18918;BME280;9591;52.742;13.650;2022-10-29T05:03:51;101610.16;;;13.73;100.00
18918;BME280;9591;52.742;13.650;2022-10-29T05:06:44;101613.94;;;13.66;100.00
18918;BME280;9591;52.742;13.650;2022-10-29T05:09:30;101623.84;;;13.61;100.00
18918;BME280;9591;52.742;13.650;2022-10-29T05:12:19;101622.13;;;13.60;100.00
18918;BME280;9591;52.742;13.650;2022-10-29T05:15:06;101623.06;;;13.57;100.00
18918;BME280;9591;52.742;13.650;2022-10-29T05:17:53;101618.75;;;13.53;100.00
18918;BME280;9591;52.742;13.650;2022-10-29T05:20:40;101618.06;;;13.47;100.00
18918;BME280;9591;52.742;13.650;2022-10-29T05:23:27;101620.69;;;13.48;100.00
18918;BME280;9591;52.742;13.650;2022-10-29T05:26:14;101622.66;;;13.41;100.00
18918;BME280;9591;52.742;13.650;2022-10-29T05:29:02;101630.56;;;13.44;100.00
18918;BME280;9591;52.742;13.650;2022-10-29T05:31:51;101618.44;;;13.34;100.00
18918;BME280;9591;52.742;13.650;2022-10-29T05:34:38;101625.41;;;13.38;100.00
18918;BME280;9591;52.742;13.650;2022-10-29T05:37:28;101619.19;;;13.39;100.00
18918;BME280;9591;52.742;13.650;2022-10-29T05:40:15;101628.34;;;13.29;100.00
18918;BME280;9591;52.742;13.650;2022-10-29T05:43:02;101622.25;;;13.26;100.00
18918;BME280;9591;52.742;13.650;2022-10-29T05:45:50;101619.72;;;13.21;100.00
18918;BME280;9591;52.742;13.650;2022-10-29T05:48:37;101625.81;;;13.25;100.00
18918;BME280;9591;52.742;13.650;2022-10-29T05:51:24;101618.66;;;13.27;100.00
18918;BME280;9591;52.742;13.650;2022-10-29T05:54:11;101619.41;;;13.32;100.00
18918;BME280;9591;52.742;13.650;2022-10-29T05:56:57;101618.41;;;13.36;100.00
18918;BME280;9591;52.742;13.650;2022-10-29T05:59:44;101603.13;;;13.42;100.00
18918;BME280;9591;52.742;13.650;2022-10-29T06:02:32;101609.69;;;13.31;100.00
18918;BME280;9591;52.742;13.650;2022-10-29T06:05:19;101615.28;;;13.22;100.00
18918;BME280;9591;52.742;13.650;2022-10-29T06:08:06;101620.97;;;13.39;100.00
18918;BME280;9591;52.742;13.650;2022-10-29T06:10:53;101637.72;;;13.42;100.00
18918;BME280;9591;52.742;13.650;2022-10-29T06:13:40;101629.69;;;13.44;100.00
18918;BME280;9591;52.742;13.650;2022-10-29T06:16:26;101631.47;;;13.43;100.00
18918;BME280;9591;52.742;13.650;2022-10-29T06:19:15;101635.84;;;13.46;100.00
18918;BME280;9591;52.742;13.650;2022-10-29T06:22:03;101638.59;;;13.43;100.00
18918;BME280;9591;52.742;13.650;2022-10-29T06:24:50;101634.00;;;13.48;100.00
18918;BME280;9591;52.742;13.650;2022-10-29T06:27:37;101642.84;;;13.49;100.00
18918;BME280;9591;52.742;13.650;2022-10-29T06:30:23;101652.75;;;13.43;100.00
18918;BME280;9591;52.742;13.650;2022-10-29T06:33:10;101656.84;;;13.55;100.00
18918;BME280;9591;52.742;13.650;2022-10-29T06:35:59;101654.09;;;13.58;100.00
18918;BME280;9591;52.742;13.650;2022-10-29T06:38:46;101666.22;;;13.68;100.00
18918;BME280;9591;52.742;13.650;2022-10-29T06:41:33;101663.72;;;13.62;100.00
18918;BME280;9591;52.742;13.650;2022-10-29T06:44:19;101662.78;;;13.65;100.00
18918;BME280;9591;52.742;13.650;2022-10-29T06:47:06;101658.69;;;13.83;100.00
18918;BME280;9591;52.742;13.650;2022-10-29T06:49:53;101665.47;;;13.91;100.00
18918;BME280;9591;52.742;13.650;2022-10-29T06:52:41;101680.91;;;13.82;100.00
18918;BME280;9591;52.742;13.650;2022-10-29T06:55:28;101674.84;;;13.76;100.00
18918;BME280;9591;52.742;13.650;2022-10-29T06:58:17;101671.25;;;13.77;100.00
18918;BME280;9591;52.742;13.650;2022-10-29T07:01:04;101667.59;;;13.82;100.00
18918;BME280;9591;52.742;13.650;2022-10-29T07:03:51;101664.69;;;13.88;100.00
18918;BME280;9591;52.742;13.650;2022-10-29T07:06:38;101662.81;;;13.91;100.00
18918;BME280;9591;52.742;13.650;2022-10-29T07:09:26;101661.31;;;14.10;100.00
18918;BME280;9591;52.742;13.650;2022-10-29T07:12:13;101667.66;;;14.06;100.00
18918;BME280;9591;52.742;13.650;2022-10-29T07:14:59;101659.75;;;14.03;100.00
18918;BME280;9591;52.742;13.650;2022-10-29T07:17:53;101662.44;;;14.03;100.00
18918;BME280;9591;52.742;13.650;2022-10-29T07:20:42;101667.59;;;14.08;100.00
18918;BME280;9591;52.742;13.650;2022-10-29T07:23:29;101672.00;;;14.09;100.00
18918;BME280;9591;52.742;13.650;2022-10-29T07:26:17;101682.56;;;14.12;100.00
18918;BME280;9591;52.742;13.650;2022-10-29T07:29:04;101699.63;;;14.34;100.00
18918;BME280;9591;52.742;13.650;2022-10-29T07:31:51;101700.28;;;14.42;100.00
18918;BME280;9591;52.742;13.650;2022-10-29T07:34:38;101699.31;;;14.45;100.00
18918;BME280;9591;52.742;13.650;2022-10-29T07:37:26;101695.63;;;14.49;100.00
18918;BME280;9591;52.742;13.650;2022-10-29T07:40:12;101707.03;;;14.53;100.00
18918;BME280;9591;52.742;13.650;2022-10-29T07:43:00;101697.81;;;14.63;100.00
18918;BME280;9591;52.742;13.650;2022-10-29T07:45:48;101702.56;;;14.80;100.00
18918;BME280;9591;52.742;13.650;2022-10-29T07:48:36;101708.53;;;14.86;100.00
18918;BME280;9591;52.742;13.650;2022-10-29T07:51:23;101710.78;;;14.98;100.00
18918;BME280;9591;52.742;13.650;2022-10-29T07:54:09;101714.16;;;15.03;100.00
18918;BME280;9591;52.742;13.650;2022-10-29T07:56:59;101715.59;;;15.14;100.00
18918;BME280;9591;52.742;13.650;2022-10-29T07:59:47;101713.63;;;15.19;100.00
18918;BME280;9591;52.742;13.650;2022-10-29T08:02:34;101720.53;;;15.24;100.00
18918;BME280;9591;52.742;13.650;2022-10-29T08:05:22;101726.41;;;15.34;100.00
18918;BME280;9591;52.742;13.650;2022-10-29T08:08:09;101717.31;;;15.39;100.00
18918;BME280;9591;52.742;13.650;2022-10-29T08:10:58;101712.63;;;15.69;100.00
18918;BME280;9591;52.742;13.650;2022-10-29T08:13:47;101714.66;;;15.63;100.00
18918;BME280;9591;52.742;13.650;2022-10-29T08:16:35;101714.50;;;15.67;100.00
18918;BME280;9591;52.742;13.650;2022-10-29T08:19:22;101719.59;;;15.97;100.00
18918;BME280;9591;52.742;13.650;2022-10-29T08:22:08;101716.88;;;15.98;100.00
18918;BME280;9591;52.742;13.650;2022-10-29T08:24:55;101706.88;;;16.03;100.00
18918;BME280;9591;52.742;13.650;2022-10-29T08:27:42;101716.44;;;16.09;100.00
18918;BME280;9591;52.742;13.650;2022-10-29T08:30:29;101700.09;;;16.17;100.00
18918;BME280;9591;52.742;13.650;2022-10-29T08:33:18;101712.41;;;16.43;100.00
18918;BME280;9591;52.742;13.650;2022-10-29T08:36:05;101710.19;;;16.32;100.00
18918;BME280;9591;52.742;13.650;2022-10-29T08:38:52;101720.06;;;16.30;100.00
18918;BME280;9591;52.742;13.650;2022-10-29T08:41:45;101723.84;;;16.46;100.00
18918;BME280;9591;52.742;13.650;2022-10-29T08:44:54;101719.63;;;16.41;100.00
18918;BME280;9591;52.742;13.650;2022-10-29T08:47:53;101728.72;;;16.36;100.00
18918;BME280;9591;52.742;13.650;2022-10-29T08:50:50;101730.91;;;16.47;100.00
18918;BME280;9591;52.742;13.650;2022-10-29T08:53:41;101731.53;;;16.54;100.00
18918;BME280;9591;52.742;13.650;2022-10-29T08:56:36;101728.53;;;16.61;100.00
18918;BME280;9591;52.742;13.650;2022-10-29T08:59:25;101722.69;;;16.52;100.00
18918;BME280;9591;52.742;13.650;2022-10-29T09:02:15;101724.06;;;16.62;100.00
18918;BME280;9591;52.742;13.650;2022-10-29T09:05:04;101714.56;;;16.77;100.00
18918;BME280;9591;52.742;13.650;2022-10-29T09:08:02;101713.09;;;16.90;100.00
18918;BME280;9591;52.742;13.650;2022-10-29T09:10:54;101727.81;;;16.80;100.00
18918;BME280;9591;52.742;13.650;2022-10-29T09:13:47;101745.63;;;17.01;100.00
18918;BME280;9591;52.742;13.650;2022-10-29T09:16:42;101745.09;;;17.13;100.00
18918;BME280;9591;52.742;13.650;2022-10-29T09:19:48;101746.50;;;17.22;100.00
18918;BME280;9591;52.742;13.650;2022-10-29T09:22:46;101736.81;;;17.38;100.00
18918;BME280;9591;52.742;13.650;2022-10-29T09:25:42;101747.59;;;17.36;100.00
18918;BME280;9591;52.742;13.650;2022-10-29T09:28:40;101754.94;;;17.13;100.00
18918;BME280;9591;52.742;13.650;2022-10-29T09:31:36;101746.72;;;17.17;100.00
18918;BME280;9591;52.742;13.650;2022-10-29T09:34:29;101737.75;;;17.37;100.00
18918;BME280;9591;52.742;13.650;2022-10-29T09:37:19;101728.44;;;17.27;100.00
18918;BME280;9591;52.742;13.650;2022-10-29T09:40:18;101734.84;;;17.23;100.00
18918;BME280;9591;52.742;13.650;2022-10-29T09:43:31;101737.47;;;17.24;100.00
18918;BME280;9591;52.742;13.650;2022-10-29T09:46:30;101733.13;;;17.41;100.00
18918;BME280;9591;52.742;13.650;2022-10-29T09:49:31;101723.06;;;17.27;100.00
18918;BME280;9591;52.742;13.650;2022-10-29T09:52:22;101718.00;;;17.21;100.00
18918;BME280;9591;52.742;13.650;2022-10-29T09:55:17;101729.16;;;17.30;100.00
18918;BME280;9591;52.742;13.650;2022-10-29T09:58:06;101725.31;;;17.36;100.00
18918;BME280;9591;52.742;13.650;2022-10-29T10:00:54;101720.41;;;17.27;100.00
18918;BME280;9591;52.742;13.650;2022-10-29T10:03:44;101706.59;;;17.55;100.00
18918;BME280;9591;52.742;13.650;2022-10-29T10:07:00;101716.91;;;17.64;100.00
18918;BME280;9591;52.742;13.650;2022-10-29T10:09:53;101710.44;;;17.69;100.00
18918;BME280;9591;52.742;13.650;2022-10-29T10:12:44;101716.09;;;17.82;100.00
18918;BME280;9591;52.742;13.650;2022-10-29T10:15:32;101717.91;;;17.61;100.00
18918;BME280;9591;52.742;13.650;2022-10-29T10:18:23;101718.19;;;17.55;100.00
18918;BME280;9591;52.742;13.650;2022-10-29T10:21:13;101715.59;;;17.54;100.00
18918;BME280;9591;52.742;13.650;2022-10-29T10:24:01;101723.59;;;17.74;100.00
18918;BME280;9591;52.742;13.650;2022-10-29T10:26:49;101722.53;;;17.78;100.00
18918;BME280;9591;52.742;13.650;2022-10-29T10:29:35;101709.06;;;17.80;100.00
18918;BME280;9591;52.742;13.650;2022-10-29T10:32:24;101696.34;;;17.64;100.00
18918;BME280;9591;52.742;13.650;2022-10-29T10:35:26;101700.94;;;18.00;100.00
18918;BME280;9591;52.742;13.650;2022-10-29T10:38:14;101704.28;;;18.05;100.00
18918;BME280;9591;52.742;13.650;2022-10-29T10:41:04;101704.78;;;18.13;100.00
18918;BME280;9591;52.742;13.650;2022-10-29T10:43:54;101700.00;;;18.20;100.00
18918;BME280;9591;52.742;13.650;2022-10-29T10:46:42;101699.00;;;18.04;100.00
18918;BME280;9591;52.742;13.650;2022-10-29T10:49:32;101687.97;;;17.91;100.00
18918;BME280;9591;52.742;13.650;2022-10-29T10:52:25;101692.16;;;18.15;100.00
18918;BME280;9591;52.742;13.650;2022-10-29T10:55:18;101685.16;;;18.30;100.00
18918;BME280;9591;52.742;13.650;2022-10-29T10:58:11;101682.84;;;18.22;100.00
18918;BME280;9591;52.742;13.650;2022-10-29T11:01:04;101677.84;;;18.33;100.00
18918;BME280;9591;52.742;13.650;2022-10-29T11:03:59;101684.69;;;18.39;100.00
18918;BME280;9591;52.742;13.650;2022-10-29T11:06:49;101685.13;;;18.49;100.00
18918;BME280;9591;52.742;13.650;2022-10-29T11:09:40;101676.50;;;18.42;100.00
18918;BME280;9591;52.742;13.650;2022-10-29T11:12:31;101688.47;;;18.35;100.00
18918;BME280;9591;52.742;13.650;2022-10-29T11:15:27;101679.75;;;18.49;100.00
18918;BME280;9591;52.742;13.650;2022-10-29T11:18:18;101673.75;;;18.44;100.00
18918;BME280;9591;52.742;13.650;2022-10-29T11:21:10;101673.56;;;18.29;100.00
18918;BME280;9591;52.742;13.650;2022-10-29T11:24:04;101666.06;;;18.19;100.00
18918;BME280;9591;52.742;13.650;2022-10-29T11:26:59;101666.75;;;18.22;100.00
18918;BME280;9591;52.742;13.650;2022-10-29T11:29:54;101659.50;;;18.07;100.00
18918;BME280;9591;52.742;13.650;2022-10-29T11:32:54;101661.97;;;17.93;100.00
18918;BME280;9591;52.742;13.650;2022-10-29T11:35:46;101657.91;;;18.03;100.00
18918;BME280;9591;52.742;13.650;2022-10-29T11:38:39;101657.16;;;18.18;100.00
18918;BME280;9591;52.742;13.650;2022-10-29T11:41:33;101659.50;;;18.24;100.00
18918;BME280;9591;52.742;13.650;2022-10-29T11:44:24;101660.72;;;18.36;100.00
18918;BME280;9591;52.742;13.650;2022-10-29T11:47:34;101658.41;;;18.64;100.00
18918;BME280;9591;52.742;13.650;2022-10-29T11:50:32;101652.97;;;18.66;100.00
18918;BME280;9591;52.742;13.650;2022-10-29T11:53:50;101646.66;;;18.67;100.00
18918;BME280;9591;52.742;13.650;2022-10-29T11:56:48;101637.41;;;18.90;100.00
18918;BME280;9591;52.742;13.650;2022-10-29T11:59:45;101638.44;;;18.87;100.00
18918;BME280;9591;52.742;13.650;2022-10-29T12:06:15;101630.91;;;18.59;100.00
18918;BME280;9591;52.742;13.650;2022-10-29T12:09:30;101624.06;;;18.54;100.00
18918;BME280;9591;52.742;13.650;2022-10-29T12:12:24;101620.50;;;18.36;100.00
18918;BME280;9591;52.742;13.650;2022-10-29T12:15:21;101602.66;;;18.35;100.00
18918;BME280;9591;52.742;13.650;2022-10-29T12:18:16;101601.78;;;18.34;100.00
18918;BME280;9591;52.742;13.650;2022-10-29T12:21:15;101598.50;;;18.12;100.00
18918;BME280;9591;52.742;13.650;2022-10-29T12:24:20;101590.91;;;18.03;100.00
18918;BME280;9591;52.742;13.650;2022-10-29T12:27:12;101590.34;;;17.96;100.00
18918;BME280;9591;52.742;13.650;2022-10-29T12:30:03;101590.78;;;17.87;100.00
18918;BME280;9591;52.742;13.650;2022-10-29T12:32:58;101598.47;;;17.95;100.00
18918;BME280;9591;52.742;13.650;2022-10-29T12:35:55;101599.34;;;18.30;100.00
18918;BME280;9591;52.742;13.650;2022-10-29T12:38:47;101597.31;;;18.52;100.00
18918;BME280;9591;52.742;13.650;2022-10-29T12:41:39;101590.28;;;18.50;100.00
18918;BME280;9591;52.742;13.650;2022-10-29T12:44:35;101589.38;;;18.68;100.00
18918;BME280;9591;52.742;13.650;2022-10-29T12:47:32;101587.31;;;18.73;100.00
18918;BME280;9591;52.742;13.650;2022-10-29T12:50:37;101582.63;;;18.59;100.00
18918;BME280;9591;52.742;13.650;2022-10-29T12:53:30;101578.97;;;18.62;100.00
18918;BME280;9591;52.742;13.650;2022-10-29T12:56:21;101575.38;;;18.79;100.00
18918;BME280;9591;52.742;13.650;2022-10-29T12:59:28;101574.31;;;18.98;100.00
18918;BME280;9591;52.742;13.650;2022-10-29T13:02:24;101575.44;;;19.10;100.00
18918;BME280;9591;52.742;13.650;2022-10-29T13:05:38;101572.59;;;18.97;100.00
18918;BME280;9591;52.742;13.650;2022-10-29T13:08:32;101573.53;;;18.96;100.00
18918;BME280;9591;52.742;13.650;2022-10-29T13:11:42;101577.88;;;18.99;100.00
18918;BME280;9591;52.742;13.650;2022-10-29T13:14:34;101574.94;;;19.04;100.00
18918;BME280;9591;52.742;13.650;2022-10-29T13:17:27;101578.91;;;18.96;100.00
18918;BME280;9591;52.742;13.650;2022-10-29T13:20:20;101573.13;;;19.04;100.00
18918;BME280;9591;52.742;13.650;2022-10-29T13:23:31;101567.38;;;18.94;100.00
18918;BME280;9591;52.742;13.650;2022-10-29T13:26:52;101563.63;;;18.81;100.00
18918;BME280;9591;52.742;13.650;2022-10-29T13:29:45;101558.31;;;18.97;100.00
18918;BME280;9591;52.742;13.650;2022-10-29T13:32:34;101555.88;;;19.08;100.00
18918;BME280;9591;52.742;13.650;2022-10-29T13:35:39;101567.06;;;19.01;100.00
18918;BME280;9591;52.742;13.650;2022-10-29T13:38:40;101566.81;;;19.05;100.00
18918;BME280;9591;52.742;13.650;2022-10-29T13:41:52;101570.44;;;19.04;100.00
18918;BME280;9591;52.742;13.650;2022-10-29T13:44:39;101561.22;;;19.08;100.00
18918;BME280;9591;52.742;13.650;2022-10-29T13:47:27;101566.97;;;19.02;100.00
18918;BME280;9591;52.742;13.650;2022-10-29T13:50:14;101568.41;;;19.08;100.00
18918;BME280;9591;52.742;13.650;2022-10-29T13:53:05;101560.66;;;19.19;100.00
18918;BME280;9591;52.742;13.650;2022-10-29T13:55:59;101565.06;;;19.04;100.00
18918;BME280;9591;52.742;13.650;2022-10-29T13:58:47;101554.59;;;18.99;100.00
18918;BME280;9591;52.742;13.650;2022-10-29T14:01:36;101556.97;;;18.88;100.00
18918;BME280;9591;52.742;13.650;2022-10-29T14:04:27;101546.31;;;18.87;100.00
18918;BME280;9591;52.742;13.650;2022-10-29T14:07:19;101546.44;;;19.01;100.00
18918;BME280;9591;52.742;13.650;2022-10-29T14:10:15;101537.06;;;18.92;100.00
18918;BME280;9591;52.742;13.650;2022-10-29T14:13:10;101544.75;;;18.83;100.00
18918;BME280;9591;52.742;13.650;2022-10-29T14:16:17;101536.63;;;18.84;100.00
18918;BME280;9591;52.742;13.650;2022-10-29T14:19:12;101535.13;;;18.79;100.00
18918;BME280;9591;52.742;13.650;2022-10-29T14:21:59;101528.97;;;18.77;100.00
18918;BME280;9591;52.742;13.650;2022-10-29T14:24:45;101531.66;;;18.77;100.00
18918;BME280;9591;52.742;13.650;2022-10-29T14:27:32;101527.16;;;18.60;100.00
18918;BME280;9591;52.742;13.650;2022-10-29T14:30:21;101528.44;;;18.53;100.00
18918;BME280;9591;52.742;13.650;2022-10-29T14:33:21;101521.75;;;18.44;100.00
18918;BME280;9591;52.742;13.650;2022-10-29T14:36:14;101518.81;;;18.31;100.00
18918;BME280;9591;52.742;13.650;2022-10-29T14:39:05;101517.13;;;18.13;100.00
18918;BME280;9591;52.742;13.650;2022-10-29T14:41:53;101533.38;;;18.10;100.00
18918;BME280;9591;52.742;13.650;2022-10-29T14:44:45;101527.53;;;18.02;100.00
18918;BME280;9591;52.742;13.650;2022-10-29T14:47:36;101513.16;;;17.86;100.00